createdAt,value
2023-02-17T00:01:34.700Z,8.13
2023-02-17T00:06:38.644Z,7.28
2023-02-17T00:11:41.012Z,7.25
2023-02-17T00:16:44.444Z,7.25
2023-02-17T00:21:48.289Z,6.20
2023-02-17T00:26:50.885Z,7.40
2023-02-17T00:31:54.197Z,6.97
2023-02-17T00:36:58.113Z,6.85
2023-02-17T00:42:00.465Z,7.15
2023-02-17T00:47:02.799Z,6.20
2023-02-17T00:52:06.724Z,6.32
2023-02-17T00:57:09.080Z,6.18
2023-02-17T01:02:11.507Z,5.90
2023-02-17T01:07:15.191Z,6.03
2023-02-17T01:12:17.489Z,7.18
2023-02-17T01:17:19.811Z,6.07
2023-02-17T01:22:23.641Z,6.45
2023-02-17T01:27:25.929Z,6.78
2023-02-17T01:32:28.355Z,5.70
2023-02-17T01:37:33.233Z,6.38
2023-02-17T01:42:35.707Z,6.68
2023-02-17T01:47:38.086Z,7.30
2023-02-17T01:52:43.553Z,7.72
2023-02-17T01:57:48.476Z,7.78
2023-02-17T02:02:51.742Z,8.05
2023-02-17T02:07:57.094Z,8.93
2023-02-17T02:12:59.737Z,8.75
2023-02-17T02:18:25.332Z,9.10
2023-02-17T02:23:58.885Z,9.93
2023-02-17T02:29:44.021Z,9.00
2023-02-17T02:34:53.742Z,10.93
2023-02-17T02:39:57.443Z,10.90
2023-02-17T02:44:59.763Z,12.07
2023-02-17T02:50:03.662Z,11.23
2023-02-17T02:55:12.322Z,13.13
2023-02-17T03:00:23.960Z,14.15
2023-02-17T03:05:37.315Z,12.48
2023-02-17T03:10:46.023Z,14.45
2023-02-17T03:15:49.440Z,14.25
2023-02-17T03:20:57.248Z,14.15
2023-02-17T03:25:59.932Z,14.60
2023-02-17T03:31:02.344Z,14.52
2023-02-17T03:36:07.519Z,15.30
2023-02-17T03:41:10.235Z,15.35
2023-02-17T03:46:13.157Z,16.35
2023-02-17T03:51:19.331Z,16.45
2023-02-17T03:56:21.673Z,14.80
2023-02-17T04:01:24.564Z,16.23
2023-02-17T04:06:28.416Z,15.43
2023-02-17T04:11:30.762Z,14.68
2023-02-17T04:16:33.184Z,13.60
2023-02-17T04:21:37.037Z,15.35
2023-02-17T04:26:39.386Z,14.77
2023-02-17T04:31:41.778Z,15.07
2023-02-17T04:36:45.579Z,14.27
2023-02-17T04:41:48.000Z,14.40
2023-02-17T04:46:50.339Z,15.85
2023-02-17T04:51:54.134Z,14.07
2023-02-17T04:56:56.513Z,14.07
2023-02-17T05:01:58.871Z,14.45
2023-02-17T05:07:02.690Z,15.20
2023-02-17T05:12:05.190Z,15.30
2023-02-17T05:17:07.932Z,15.38
2023-02-17T05:22:14.281Z,14.63
2023-02-17T05:27:17.172Z,14.32
2023-02-17T05:32:20.106Z,15.02
2023-02-17T05:37:24.662Z,15.15
2023-02-17T05:42:29.227Z,14.98
2023-02-17T05:47:33.118Z,13.05
2023-02-17T05:52:37.352Z,14.32
2023-02-17T05:57:40.108Z,12.02
2023-02-17T06:02:43.134Z,13.48
2023-02-17T06:07:47.392Z,14.77
2023-02-17T06:12:50.435Z,14.23
2023-02-17T06:17:53.145Z,12.75
2023-02-17T06:23:03.091Z,12.30
2023-02-17T06:28:11.397Z,11.18
2023-02-17T06:33:14.213Z,8.65
2023-02-17T06:38:19.046Z,10.25
2023-02-17T06:43:24.144Z,9.68
2023-02-17T06:48:29.690Z,9.52
2023-02-17T06:53:36.973Z,9.65
2023-02-17T07:03:42.423Z,8.85
2023-02-17T07:08:46.987Z,8.45
2023-02-17T07:13:49.833Z,9.18
2023-02-17T07:18:53.024Z,9.02
2023-02-17T07:23:57.603Z,10.43
2023-02-17T07:29:00.295Z,9.82
2023-02-17T07:34:12.053Z,9.18
2023-02-17T07:39:16.394Z,11.05
2023-02-17T07:44:19.409Z,12.55
2023-02-17T07:49:25.236Z,14.85
2023-02-17T08:00:43.468Z,15.52
2023-02-17T08:05:48.149Z,15.25
2023-02-17T08:10:51.333Z,16.77
2023-02-17T08:15:55.137Z,13.40
2023-02-17T08:20:57.452Z,16.25
2023-02-17T08:26:00.270Z,14.70
2023-02-17T08:31:15.674Z,15.98
2023-02-17T08:36:19.643Z,15.70
2023-02-17T08:41:24.953Z,16.17
2023-02-17T08:47:19.733Z,15.68
2023-02-17T08:53:15.430Z,13.32
2023-02-17T08:58:22.562Z,12.65
2023-02-17T09:04:16.116Z,11.32
2023-02-17T09:09:39.748Z,10.93
2023-02-17T09:15:11.252Z,10.80
2023-02-17T09:20:25.034Z,11.63
2023-02-17T09:32:16.080Z,10.95
2023-02-17T09:37:41.775Z,10.15
2023-02-17T09:54:28.930Z,9.18
2023-02-17T10:05:23.848Z,9.82
2023-02-17T10:10:31.762Z,8.77
2023-02-17T10:15:40.249Z,8.60
2023-02-17T10:20:50.272Z,8.38
2023-02-17T10:26:06.374Z,10.00
2023-02-17T10:31:13.815Z,13.10
2023-02-17T10:36:25.581Z,21.77
2023-02-17T10:41:34.617Z,10.20
2023-02-17T10:46:40.683Z,9.35
2023-02-17T10:51:44.492Z,11.60
2023-02-17T10:56:51.451Z,6.55
2023-02-17T11:01:58.596Z,14.63
2023-02-17T11:07:11.279Z,5.72
2023-02-17T11:12:17.809Z,6.55
2023-02-17T11:17:27.351Z,6.60
2023-02-17T11:22:36.839Z,5.43
2023-02-17T11:27:39.125Z,5.95
2023-02-17T11:32:41.502Z,5.95
2023-02-17T11:37:45.425Z,5.45
2023-02-17T11:42:56.410Z,5.60
2023-02-17T11:48:19.552Z,4.80
2023-02-17T11:53:36.332Z,5.10
2023-02-17T11:58:59.541Z,5.65
2023-02-17T12:04:28.155Z,4.07
2023-02-17T12:09:45.459Z,3.90
2023-02-17T12:20:16.464Z,3.85
2023-02-17T12:25:29.171Z,3.38
2023-02-17T12:30:46.348Z,3.53
2023-02-17T12:35:52.309Z,3.58
2023-02-17T12:41:00.676Z,3.35
2023-02-17T12:46:08.342Z,2.53
2023-02-17T12:51:17.813Z,3.88
2023-02-17T12:56:48.502Z,2.45
2023-02-17T13:01:56.780Z,1.88
2023-02-17T13:07:22.877Z,2.72
2023-02-17T13:12:39.997Z,2.47
2023-02-17T13:23:06.209Z,2.15
2023-02-17T13:28:35.626Z,1.60
2023-02-17T13:33:44.338Z,2.00
2023-02-17T13:38:55.993Z,2.00
2023-02-17T13:43:59.789Z,2.47
2023-02-17T13:49:04.598Z,2.00
2023-02-17T13:54:08.646Z,1.70
2023-02-17T13:59:16.838Z,1.80
2023-02-17T14:04:22.206Z,1.95
2023-02-17T14:09:27.503Z,1.77
2023-02-17T14:14:33.905Z,2.70
2023-02-17T14:19:43.809Z,2.73
2023-02-17T14:24:46.208Z,3.28
2023-02-17T14:29:50.385Z,2.42
2023-02-17T14:34:52.765Z,2.70
2023-02-17T14:39:55.054Z,3.17
2023-02-17T14:44:58.865Z,3.22
2023-02-17T14:50:01.249Z,3.55
2023-02-17T14:55:06.554Z,2.85
2023-02-17T15:00:14.955Z,2.67
2023-02-17T15:05:17.589Z,2.95
2023-02-17T15:10:25.032Z,2.97
2023-02-17T15:15:28.838Z,2.88
2023-02-17T15:20:31.180Z,2.78
2023-02-17T15:25:34.955Z,2.95
2023-02-17T15:30:39.047Z,3.60
2023-02-17T15:35:41.564Z,3.10
2023-02-17T15:40:43.865Z,2.97
2023-02-17T15:45:47.631Z,2.63
2023-02-17T15:50:50.199Z,3.08
2023-02-17T15:55:53.445Z,3.42
2023-02-17T16:01:01.599Z,3.22
2023-02-17T16:06:04.129Z,3.00
2023-02-17T16:11:08.827Z,3.50
2023-02-17T16:16:17.580Z,2.83
2023-02-17T16:21:19.935Z,3.10
2023-02-17T16:26:27.715Z,4.03
2023-02-17T16:31:32.563Z,3.50
2023-02-17T16:36:36.184Z,3.22
2023-02-17T16:41:40.002Z,2.83
2023-02-17T16:46:49.220Z,3.13
2023-02-17T16:51:51.958Z,2.80
2023-02-17T16:56:55.083Z,2.50
2023-02-17T17:01:58.942Z,4.07
2023-02-17T17:07:01.278Z,3.33
2023-02-17T17:12:06.711Z,3.38
2023-02-17T17:17:11.951Z,4.13
2023-02-17T17:22:14.361Z,3.55
2023-02-17T17:27:16.720Z,3.20
2023-02-17T17:32:20.501Z,3.20
2023-02-17T17:37:22.878Z,3.90
2023-02-17T17:42:25.181Z,3.30
2023-02-17T17:47:30.398Z,3.20
2023-02-17T17:52:33.321Z,3.55
2023-02-17T17:57:35.600Z,3.60
2023-02-17T18:02:39.413Z,3.72
2023-02-17T18:07:45.087Z,4.60
2023-02-17T18:12:48.727Z,3.85
2023-02-17T18:17:53.299Z,3.25
2023-02-17T18:22:56.080Z,3.15
2023-02-17T18:27:58.439Z,3.50
2023-02-17T18:33:04.105Z,3.03
2023-02-17T18:38:16.041Z,3.05
2023-02-17T18:43:18.393Z,3.00
2023-02-17T18:48:22.379Z,4.22
2023-02-17T18:53:24.677Z,3.55
2023-02-17T18:58:27.057Z,3.33
2023-02-17T19:03:31.064Z,3.35
2023-02-17T19:08:33.891Z,3.33
2023-02-17T19:13:36.949Z,3.88
2023-02-17T19:18:41.863Z,3.63
2023-02-17T19:23:44.778Z,3.50
2023-02-17T19:28:47.142Z,3.08
2023-02-17T19:33:51.001Z,3.90
2023-02-17T19:38:56.860Z,3.28
2023-02-17T19:43:59.204Z,3.55
2023-02-17T19:49:03.345Z,2.80
2023-02-17T19:54:05.701Z,3.22
2023-02-17T19:59:08.035Z,3.38
2023-02-17T20:04:11.881Z,3.28
2023-02-17T20:09:18.381Z,3.00
2023-02-17T20:14:21.126Z,3.23
2023-02-17T20:19:25.046Z,2.80
2023-02-17T20:24:27.532Z,2.75
2023-02-17T20:29:30.005Z,2.67
2023-02-17T20:34:36.152Z,3.47
2023-02-17T20:39:39.181Z,2.60
2023-02-17T20:44:42.031Z,2.70
2023-02-17T20:49:46.662Z,2.65
2023-02-17T20:54:49.090Z,2.75
2023-02-17T20:59:51.761Z,2.90
2023-02-17T21:04:55.609Z,2.42
2023-02-17T21:09:58.027Z,3.25
2023-02-17T21:15:00.670Z,2.58
2023-02-17T21:20:05.163Z,3.03
2023-02-17T21:25:08.166Z,2.70
2023-02-17T21:30:11.521Z,2.33
2023-02-17T21:35:15.362Z,2.47
2023-02-17T21:40:20.692Z,3.08
2023-02-17T21:45:23.476Z,3.05
2023-02-17T21:50:27.378Z,2.65
2023-02-17T21:55:29.717Z,2.60
2023-02-17T22:00:32.526Z,2.75
2023-02-17T22:05:36.519Z,2.60
2023-02-17T22:10:39.357Z,2.88
2023-02-17T22:15:41.824Z,2.70
2023-02-17T22:20:45.750Z,2.75
2023-02-17T22:25:48.153Z,2.50
2023-02-17T22:30:53.801Z,2.67
2023-02-17T22:36:04.327Z,2.83
2023-02-17T22:41:07.972Z,2.35
2023-02-17T22:46:11.346Z,3.00
2023-02-17T22:51:17.630Z,2.70
2023-02-17T22:56:20.464Z,2.67
2023-02-17T23:01:24.482Z,2.65
2023-02-17T23:06:31.048Z,3.08
2023-02-17T23:11:35.292Z,3.00
2023-02-17T23:16:38.434Z,2.30
2023-02-17T23:21:46.256Z,2.88
2023-02-17T23:26:49.638Z,2.45
2023-02-17T23:31:52.202Z,3.33
2023-02-17T23:36:56.011Z,2.65
2023-02-17T23:41:58.403Z,2.33
2023-02-17T23:47:00.731Z,2.90
2023-02-17T23:52:04.845Z,2.25
2023-02-17T23:57:07.305Z,2.30
